Time;durP1;ratioP1;P1;durP2;ratioP2;P2;SDS_P1;SDS_P2;PMS_P1;PMS_P2;Temp;Humidity;BMP_temperature;BMP_pressure;BME280_temperature;BME280_humidity;BME280_pressure;Samples;Min_cycle;Max_cycle;Signal;HPM_P1;HPM_P2
2023/05/07 00:00:34;;;;;;;13.60;12.32;;;12.40;99.90;;;;;;5060435;28;20025;-58
2023/05/07 00:03:00;;;;;;;13.18;11.93;;;12.50;99.90;;;;;;5058538;28;20028;-58
2023/05/07 00:05:25;;;;;;;13.02;12.02;;;12.50;99.90;;;;;;5059951;28;20040;-59
2023/05/07 00:07:52;;;;;;;13.43;12.10;;;12.50;99.90;;;;;;5062786;28;20504;-58
2023/05/07 00:10:18;;;;;;;13.38;12.38;;;12.50;99.90;;;;;;5060662;28;20029;-58
2023/05/07 00:12:44;;;;;;;14.75;13.45;;;12.40;99.90;;;;;;5059936;28;20017;-59
2023/05/07 00:15:10;;;;;;;13.60;12.20;;;12.30;99.90;;;;;;5058917;28;20032;-59
2023/05/07 00:17:36;;;;;;;14.52;13.25;;;12.20;99.90;;;;;;5061199;28;20028;-59
2023/05/07 00:20:04;;;;;;;13.27;12.18;;;12.20;99.90;;;;;;5061177;28;20050;-59
2023/05/07 00:22:30;;;;;;;13.13;12.02;;;12.10;99.90;;;;;;5061437;28;20051;-58
2023/05/07 00:24:56;;;;;;;14.05;12.75;;;12.00;99.90;;;;;;5056839;28;20028;-59
2023/05/07 00:27:22;;;;;;;14.10;12.90;;;11.90;99.90;;;;;;5059128;28;20037;-59
2023/05/07 00:29:48;;;;;;;12.57;11.57;;;11.90;99.90;;;;;;5059674;28;20534;-58
2023/05/07 00:32:14;;;;;;;11.52;10.52;;;11.80;99.90;;;;;;5059354;28;20111;-58
2023/05/07 00:34:40;;;;;;;12.60;11.40;;;11.70;99.90;;;;;;5061014;28;20020;-59
2023/05/07 00:37:07;;;;;;;11.55;10.48;;;11.70;99.90;;;;;;5056648;28;20040;-58
2023/05/07 00:39:33;;;;;;;12.20;11.07;;;11.70;99.90;;;;;;5056558;28;20025;-59
2023/05/07 00:42:00;;;;;;;13.00;11.70;;;11.70;99.90;;;;;;5057423;28;20374;-59
2023/05/07 00:44:26;;;;;;;12.65;11.65;;;11.70;99.90;;;;;;5059655;28;20021;-59
2023/05/07 00:46:52;;;;;;;13.57;12.25;;;11.80;99.90;;;;;;5057323;28;20023;-58
2023/05/07 00:49:18;;;;;;;15.35;13.40;;;11.80;99.90;;;;;;5059579;28;20024;-58
2023/05/07 00:51:45;;;;;;;14.20;12.85;;;12.00;99.90;;;;;;5060169;28;20035;-57
2023/05/07 00:54:11;;;;;;;15.65;14.18;;;12.10;99.90;;;;;;5056089;28;20032;-59
2023/05/07 00:56:37;;;;;;;15.00;13.68;;;12.20;99.90;;;;;;5058459;28;20029;-59
2023/05/07 00:59:03;;;;;;;13.98;12.88;;;12.30;99.90;;;;;;5055392;28;20031;-58
2023/05/07 01:01:29;;;;;;;14.88;13.60;;;12.30;99.90;;;;;;5060418;28;20029;-59
2023/05/07 01:03:55;;;;;;;13.90;12.80;;;12.40;99.90;;;;;;5060576;28;20097;-59
2023/05/07 01:06:23;;;;;;;13.30;12.30;;;12.40;99.90;;;;;;5057911;28;20412;-59
2023/05/07 01:08:50;;;;;;;15.38;14.07;;;12.40;99.90;;;;;;5059882;28;20044;-58
2023/05/07 01:11:19;;;;;;;15.57;13.98;;;12.40;99.90;;;;;;5056130;28;20029;-59
2023/05/07 01:13:45;;;;;;;15.43;14.02;;;12.40;99.90;;;;;;5058752;28;20021;-59
2023/05/07 01:16:11;;;;;;;14.77;13.32;;;12.40;99.90;;;;;;5059526;28;20523;-59
2023/05/07 01:18:37;;;;;;;14.02;12.73;;;12.40;99.90;;;;;;5057938;28;20041;-58
2023/05/07 01:21:04;;;;;;;14.10;12.80;;;12.40;99.90;;;;;;5056823;28;20013;-59
2023/05/07 01:23:30;;;;;;;14.23;13.02;;;12.40;99.90;;;;;;5055983;28;20028;-59
2023/05/07 01:25:56;;;;;;;14.27;12.73;;;12.50;99.90;;;;;;5057947;28;20029;-58
2023/05/07 01:28:22;;;;;;;15.23;13.05;;;12.50;99.90;;;;;;5059345;28;20039;-60
2023/05/07 01:30:59;;;;;;;15.63;14.23;;;12.50;99.90;;;;;;5057095;28;20029;-58
2023/05/07 01:33:27;;;;;;;14.88;13.63;;;12.50;99.90;;;;;;5058618;28;20025;-58
2023/05/07 01:35:53;;;;;;;14.10;12.98;;;12.50;99.90;;;;;;5057695;28;20576;-59
2023/05/07 01:38:22;;;;;;;14.27;12.93;;;12.40;99.90;;;;;;5061183;28;20094;-59
2023/05/07 01:40:48;;;;;;;13.88;12.75;;;12.40;99.90;;;;;;5062346;28;20036;-59
2023/05/07 01:43:14;;;;;;;13.50;12.27;;;12.30;99.90;;;;;;5064265;28;20029;-58
2023/05/07 01:45:41;;;;;;;11.82;10.25;;;12.20;99.90;;;;;;5061983;28;20120;-59
2023/05/07 01:48:08;;;;;;;9.25;8.45;;;12.10;99.90;;;;;;5059825;28;20032;-58
2023/05/07 01:50:34;;;;;;;9.52;8.63;;;11.80;99.90;;;;;;5058389;28;20111;-59
2023/05/07 01:53:02;;;;;;;10.90;10.00;;;11.70;99.90;;;;;;5058545;28;20080;-57
2023/05/07 01:55:27;;;;;;;10.82;9.88;;;11.60;99.90;;;;;;5058434;28;20115;-59
2023/05/07 01:57:53;;;;;;;12.38;11.20;;;11.50;99.90;;;;;;5058422;28;20112;-59
2023/05/07 02:00:19;;;;;;;13.90;12.75;;;11.40;99.90;;;;;;5059195;28;20024;-59
2023/05/07 02:02:45;;;;;;;14.95;13.32;;;11.40;99.90;;;;;;5055762;28;20033;-58
2023/05/07 02:05:10;;;;;;;14.35;13.15;;;11.40;99.90;;;;;;5057995;28;20493;-59
2023/05/07 02:07:36;;;;;;;13.25;12.25;;;11.40;99.90;;;;;;5058220;28;20073;-58
2023/05/07 02:10:02;;;;;;;13.82;12.63;;;11.40;99.90;;;;;;5057782;28;20033;-60
2023/05/07 02:12:28;;;;;;;14.20;12.88;;;11.40;99.90;;;;;;5055891;28;20039;-58
2023/05/07 02:14:54;;;;;;;12.95;11.85;;;11.40;99.90;;;;;;5055200;28;20021;-58
2023/05/07 02:17:20;;;;;;;13.50;12.27;;;11.40;99.90;;;;;;5054014;28;20119;-58
2023/05/07 02:19:45;;;;;;;13.50;12.20;;;11.50;99.90;;;;;;5059308;28;20025;-58
2023/05/07 02:22:11;;;;;;;13.60;12.45;;;11.50;99.90;;;;;;5055277;28;20028;-58
2023/05/07 02:24:36;;;;;;;12.13;11.02;;;11.50;99.90;;;;;;5054989;28;20555;-58
2023/05/07 02:27:03;;;;;;;11.90;10.88;;;11.50;99.90;;;;;;5057595;28;20041;-58
2023/05/07 02:29:29;;;;;;;11.23;10.23;;;11.50;99.90;;;;;;5055709;28;20461;-58
2023/05/07 02:31:55;;;;;;;11.85;10.82;;;11.50;99.90;;;;;;5055988;28;20396;-59
2023/05/07 02:34:21;;;;;;;10.73;9.93;;;11.50;99.90;;;;;;5057449;28;20024;-59
2023/05/07 02:36:46;;;;;;;10.85;9.77;;;11.40;99.90;;;;;;5058144;28;20021;-59
2023/05/07 02:39:13;;;;;;;12.35;11.00;;;11.40;99.90;;;;;;5058513;28;20033;-59
2023/05/07 02:41:38;;;;;;;13.90;12.60;;;11.40;99.90;;;;;;5056716;28;20043;-60
2023/05/07 02:44:04;;;;;;;12.27;11.10;;;11.40;99.90;;;;;;5055734;28;20385;-59
2023/05/07 02:46:30;;;;;;;13.57;12.48;;;11.40;99.90;;;;;;5058680;28;20541;-58
2023/05/07 02:48:56;;;;;;;13.93;12.00;;;11.40;99.90;;;;;;5049762;28;20025;-60
2023/05/07 02:51:22;;;;;;;14.10;13.00;;;11.40;99.90;;;;;;5057970;28;20036;-58
2023/05/07 02:53:48;;;;;;;14.15;12.70;;;11.30;99.90;;;;;;5055490;28;20100;-59
2023/05/07 02:56:14;;;;;;;13.98;12.55;;;11.20;99.90;;;;;;5056507;28;20170;-58
2023/05/07 02:58:40;;;;;;;14.05;12.82;;;11.20;99.90;;;;;;5060195;28;20073;-59
2023/05/07 03:01:06;;;;;;;13.20;12.15;;;11.10;99.90;;;;;;5058604;28;20040;-58
2023/05/07 03:03:32;;;;;;;14.30;12.80;;;11.00;99.90;;;;;;5055270;28;20183;-59
2023/05/07 03:05:57;;;;;;;15.10;13.70;;;11.00;99.90;;;;;;5054258;28;20104;-58
2023/05/07 03:08:25;;;;;;;13.38;12.27;;;10.90;99.90;;;;;;5052968;28;20122;-58
2023/05/07 03:10:51;;;;;;;14.73;13.07;;;10.90;99.90;;;;;;5053005;28;20025;-58
2023/05/07 03:13:16;;;;;;;14.65;13.48;;;10.80;99.90;;;;;;5055085;28;20062;-59
2023/05/07 03:15:42;;;;;;;14.98;13.48;;;10.80;99.90;;;;;;5057118;28;20402;-59
2023/05/07 03:18:08;;;;;;;14.23;13.02;;;10.70;99.90;;;;;;5058502;28;20037;-59
2023/05/07 03:20:34;;;;;;;15.07;13.77;;;10.70;99.90;;;;;;5055928;28;20040;-60
2023/05/07 03:22:59;;;;;;;14.88;13.40;;;10.70;99.90;;;;;;5053486;28;20029;-60
2023/05/07 03:25:25;;;;;;;14.85;13.32;;;10.70;99.90;;;;;;5053458;28;20024;-60
2023/05/07 03:27:51;;;;;;;16.15;14.65;;;10.70;99.90;;;;;;5056789;28;20127;-58
2023/05/07 03:30:17;;;;;;;16.10;14.48;;;10.60;99.90;;;;;;5052576;28;20036;-59
2023/05/07 03:32:42;;;;;;;15.30;13.98;;;10.60;99.90;;;;;;5062449;28;20036;-60
2023/05/07 03:35:08;;;;;;;16.65;15.05;;;10.60;99.90;;;;;;5058220;28;20116;-59
2023/05/07 03:37:34;;;;;;;17.75;15.15;;;10.60;99.90;;;;;;5059717;28;20067;-59
2023/05/07 03:39:59;;;;;;;16.65;15.00;;;10.60;99.90;;;;;;5058356;28;20132;-60
2023/05/07 03:42:25;;;;;;;15.95;14.07;;;10.70;99.90;;;;;;5061437;28;20029;-59
2023/05/07 03:44:51;;;;;;;16.48;15.00;;;10.70;99.90;;;;;;5060894;28;20110;-59
2023/05/07 03:47:16;;;;;;;16.35;14.60;;;10.70;99.90;;;;;;5060033;28;20507;-58
2023/05/07 03:49:42;;;;;;;20.67;13.88;;;10.70;99.90;;;;;;5058840;28;20543;-60
2023/05/07 03:52:07;;;;;;;17.55;14.30;;;10.80;99.90;;;;;;5057420;28;20032;-58
2023/05/07 03:54:33;;;;;;;14.35;13.15;;;10.80;99.90;;;;;;5061763;28;20029;-58
2023/05/07 03:56:59;;;;;;;15.98;14.48;;;10.90;99.90;;;;;;5059637;28;20044;-58
2023/05/07 03:59:24;;;;;;;15.60;14.07;;;10.90;99.90;;;;;;5062159;28;20114;-59
2023/05/07 04:01:50;;;;;;;16.60;14.75;;;10.90;99.90;;;;;;5056408;28;20040;-59
2023/05/07 04:04:16;;;;;;;15.23;13.93;;;10.90;99.90;;;;;;5061018;28;20033;-60
2023/05/07 04:06:42;;;;;;;15.60;14.10;;;11.00;99.90;;;;;;5059586;28;20029;-59
2023/05/07 04:09:08;;;;;;;15.32;14.10;;;11.00;99.90;;;;;;5058140;28;20085;-58
2023/05/07 04:11:35;;;;;;;15.23;13.98;;;11.00;99.90;;;;;;5061088;28;20104;-59
2023/05/07 04:14:00;;;;;;;16.23;14.82;;;11.00;99.90;;;;;;5060256;28;20492;-59
2023/05/07 04:16:26;;;;;;;16.13;14.75;;;11.10;99.90;;;;;;5062303;28;20028;-59
2023/05/07 04:18:51;;;;;;;18.02;16.20;;;11.00;99.90;;;;;;5060719;28;20028;-59
2023/05/07 04:21:20;;;;;;;17.83;16.23;;;11.00;99.90;;;;;;5059497;28;20017;-58
2023/05/07 04:23:47;;;;;;;16.02;14.48;;;11.10;99.90;;;;;;5058058;28;20520;-59
2023/05/07 04:26:13;;;;;;;17.42;15.40;;;11.10;99.90;;;;;;5061109;28;20035;-60
2023/05/07 04:28:40;;;;;;;16.92;15.13;;;11.10;99.90;;;;;;5061070;28;20503;-59
2023/05/07 04:31:06;;;;;;;15.18;13.95;;;11.20;99.90;;;;;;5057774;28;20096;-59
2023/05/07 04:33:32;;;;;;;19.58;16.52;;;11.20;99.90;;;;;;5058345;28;20497;-61
2023/05/07 04:36:02;;;;;;;16.23;14.70;;;11.30;99.90;;;;;;5065095;28;20028;-59
2023/05/07 04:38:29;;;;;;;20.17;17.35;;;11.40;99.90;;;;;;5060471;28;20021;-60
2023/05/07 04:40:55;;;;;;;18.25;16.63;;;11.50;99.90;;;;;;5057713;28;20045;-59
2023/05/07 04:43:21;;;;;;;17.00;15.40;;;11.60;99.90;;;;;;5058149;28;20033;-58
2023/05/07 04:45:47;;;;;;;19.00;17.02;;;11.70;99.90;;;;;;5058328;28;20512;-58
2023/05/07 04:48:14;;;;;;;18.92;15.93;;;11.80;99.90;;;;;;5056260;28;20089;-59
2023/05/07 04:50:40;;;;;;;19.73;17.55;;;11.80;99.90;;;;;;5063030;28;20167;-58
2023/05/07 04:53:06;;;;;;;17.92;16.33;;;11.90;99.90;;;;;;5060344;28;20020;-60
2023/05/07 04:55:31;;;;;;;18.10;16.15;;;11.90;99.90;;;;;;5059117;28;20035;-59
2023/05/07 04:57:57;;;;;;;16.70;15.30;;;11.90;99.90;;;;;;5057958;28;20497;-59
2023/05/07 05:00:23;;;;;;;19.80;16.50;;;11.90;99.90;;;;;;5058620;28;20032;-58
2023/05/07 05:02:49;;;;;;;22.58;16.25;;;11.90;99.90;;;;;;5057336;28;20798;-59
2023/05/07 05:05:14;;;;;;;19.55;17.58;;;11.90;99.90;;;;;;5060883;28;20032;-60
2023/05/07 05:07:40;;;;;;;17.83;16.02;;;11.90;99.90;;;;;;5055857;28;20169;-59
2023/05/07 05:10:06;;;;;;;18.15;16.52;;;11.80;99.90;;;;;;5062012;28;20033;-59
2023/05/07 05:12:31;;;;;;;21.13;18.75;;;11.80;99.90;;;;;;5054358;28;20100;-60
2023/05/07 05:14:57;;;;;;;19.02;17.25;;;11.80;99.90;;;;;;5055939;28;20097;-60
2023/05/07 05:17:23;;;;;;;18.45;16.63;;;11.70;99.90;;;;;;5057937;28;20032;-57
2023/05/07 05:19:49;;;;;;;19.40;17.38;;;11.70;99.90;;;;;;5057918;28;20158;-59
2023/05/07 05:22:15;;;;;;;17.63;15.63;;;11.70;99.90;;;;;;5059947;28;20103;-59
2023/05/07 05:24:40;;;;;;;18.63;16.75;;;11.70;99.90;;;;;;5058169;28;20021;-57
2023/05/07 05:27:06;;;;;;;18.67;16.77;;;11.70;99.90;;;;;;5055088;28;20170;-58
2023/05/07 05:29:32;;;;;;;20.35;17.83;;;11.80;99.90;;;;;;5055566;28;20025;-59
2023/05/07 05:31:57;;;;;;;17.60;15.70;;;11.80;99.90;;;;;;5052494;28;20025;-59
2023/05/07 05:34:23;;;;;;;16.05;14.48;;;11.90;99.90;;;;;;5058701;28;20504;-61
2023/05/07 05:36:49;;;;;;;16.17;14.27;;;11.90;99.90;;;;;;5056449;28;20119;-58
2023/05/07 05:39:14;;;;;;;16.05;14.57;;;11.90;99.90;;;;;;5057976;28;20029;-59
2023/05/07 05:41:40;;;;;;;18.10;16.48;;;12.00;99.90;;;;;;5060823;28;20036;-59
2023/05/07 05:44:06;;;;;;;17.80;16.20;;;12.10;99.90;;;;;;5057021;28;20044;-59
2023/05/07 05:46:32;;;;;;;16.95;15.55;;;12.20;99.90;;;;;;5055129;28;20025;-59
2023/05/07 05:48:57;;;;;;;18.35;16.33;;;12.40;99.90;;;;;;5057458;28;20106;-60
2023/05/07 05:51:23;;;;;;;17.98;16.45;;;12.40;99.90;;;;;;5057187;28;20109;-59
2023/05/07 05:53:49;;;;;;;18.50;16.45;;;12.60;99.90;;;;;;5056420;28;20056;-60
2023/05/07 05:56:15;;;;;;;18.52;16.90;;;12.70;99.90;;;;;;5057169;28;20032;-60
2023/05/07 05:58:41;;;;;;;17.67;16.08;;;12.80;99.90;;;;;;5055165;28;20017;-59
2023/05/07 06:01:07;;;;;;;19.67;17.63;;;12.90;99.90;;;;;;5060263;28;20040;-58
2023/05/07 06:03:32;;;;;;;17.10;15.35;;;12.90;99.90;;;;;;5059963;28;20037;-59
2023/05/07 06:05:59;;;;;;;17.13;15.57;;;13.00;99.90;;;;;;5061669;28;20033;-59
2023/05/07 06:08:25;;;;;;;17.67;16.05;;;13.10;99.90;;;;;;5058827;28;20086;-58
2023/05/07 06:10:51;;;;;;;19.15;15.20;;;13.20;99.90;;;;;;5061261;28;20024;-60
2023/05/07 06:13:17;;;;;;;17.50;15.95;;;13.30;99.90;;;;;;5059985;28;20560;-59
2023/05/07 06:15:42;;;;;;;15.57;14.05;;;13.40;99.90;;;;;;5060402;28;20033;-59
2023/05/07 06:18:08;;;;;;;16.95;15.32;;;13.60;99.90;;;;;;5060006;28;20447;-60
2023/05/07 06:20:34;;;;;;;20.58;14.95;;;13.90;99.90;;;;;;5060856;28;20082;-59
2023/05/07 06:22:59;;;;;;;16.63;15.10;;;14.20;99.90;;;;;;5060414;28;20025;-59
2023/05/07 06:25:25;;;;;;;16.27;14.80;;;14.50;99.90;;;;;;5056149;28;20053;-60
2023/05/07 06:27:51;;;;;;;14.18;12.98;;;14.70;99.90;;;;;;5058173;28;20527;-60
2023/05/07 06:30:16;;;;;;;14.70;13.43;;;14.90;99.90;;;;;;5059336;28;20037;-59
2023/05/07 06:32:43;;;;;;;15.93;13.93;;;15.00;99.90;;;;;;5056990;28;20764;-59
2023/05/07 06:35:09;;;;;;;14.48;13.18;;;15.10;99.90;;;;;;5057835;28;20033;-59
2023/05/07 06:37:34;;;;;;;19.20;13.77;;;15.20;99.90;;;;;;5058178;28;20028;-60
2023/05/07 06:40:00;;;;;;;14.35;12.98;;;15.30;99.90;;;;;;5058573;28;20108;-61
2023/05/07 06:42:26;;;;;;;14.55;13.02;;;15.50;99.90;;;;;;5059768;28;20036;-59
2023/05/07 06:44:52;;;;;;;14.73;13.15;;;15.70;99.90;;;;;;5056377;28;20492;-60
2023/05/07 06:47:17;;;;;;;13.85;12.50;;;15.90;99.90;;;;;;5056415;28;20060;-60
2023/05/07 06:49:43;;;;;;;13.02;11.80;;;16.20;99.90;;;;;;5054925;28;20041;-60
2023/05/07 06:52:08;;;;;;;13.10;12.02;;;16.50;99.90;;;;;;5055423;28;20037;-61
2023/05/07 06:54:34;;;;;;;12.43;11.32;;;16.70;99.90;;;;;;5056776;28;20489;-59
2023/05/07 06:57:00;;;;;;;12.50;11.20;;;16.90;99.90;;;;;;5056260;28;20083;-60
2023/05/07 06:59:26;;;;;;;12.95;11.75;;;17.10;99.90;;;;;;5056957;28;20032;-60
2023/05/07 07:01:51;;;;;;;11.95;10.85;;;17.20;99.90;;;;;;5055746;28;20032;-60
2023/05/07 07:04:17;;;;;;;13.10;11.90;;;17.30;99.90;;;;;;5056232;28;20017;-61
2023/05/07 07:06:43;;;;;;;13.15;11.85;;;17.40;99.90;;;;;;5057920;28;20074;-60
2023/05/07 07:09:08;;;;;;;12.15;11.13;;;17.50;99.90;;;;;;5059441;28;20634;-61
2023/05/07 07:11:34;;;;;;;13.55;12.23;;;17.60;99.90;;;;;;5056408;28;20127;-60
2023/05/07 07:14:00;;;;;;;12.48;11.38;;;17.80;99.90;;;;;;5051567;28;20083;-60
2023/05/07 07:16:26;;;;;;;11.65;10.55;;;18.00;99.90;;;;;;5055180;28;20036;-60
2023/05/07 07:18:51;;;;;;;11.50;10.50;;;18.00;99.90;;;;;;5057323;28;20068;-60
2023/05/07 07:21:17;;;;;;;11.82;10.93;;;18.10;99.90;;;;;;5055815;28;20031;-60
2023/05/07 07:23:42;;;;;;;11.90;10.90;;;18.30;99.90;;;;;;5054240;28;20437;-59
2023/05/07 07:26:08;;;;;;;11.73;10.63;;;18.20;99.90;;;;;;5056234;28;20028;-59
2023/05/07 07:28:34;;;;;;;11.45;10.55;;;18.30;99.90;;;;;;5056128;28;20029;-59
2023/05/07 07:30:59;;;;;;;11.05;10.20;;;18.50;99.90;;;;;;5056076;28;20029;-60
2023/05/07 07:33:25;;;;;;;11.13;10.23;;;18.60;99.90;;;;;;5058152;28;20056;-60
2023/05/07 07:35:51;;;;;;;10.25;9.45;;;18.70;99.90;;;;;;5054973;28;20020;-59
2023/05/07 07:38:16;;;;;;;10.40;9.60;;;18.80;99.90;;;;;;5053429;28;20029;-60
2023/05/07 07:40:43;;;;;;;10.50;9.63;;;19.00;99.90;;;;;;5055039;28;20020;-60
2023/05/07 07:43:09;;;;;;;12.18;9.50;;;19.20;99.90;;;;;;5058234;28;20041;-61
2023/05/07 07:45:35;;;;;;;10.18;9.00;;;19.10;98.30;;;;;;5055579;28;20132;-61
2023/05/07 07:48:00;;;;;;;10.20;9.30;;;19.20;99.30;;;;;;5057091;28;20041;-60
2023/05/07 07:50:26;;;;;;;10.10;9.18;;;19.20;97.50;;;;;;5056253;28;20400;-60
2023/05/07 07:52:52;;;;;;;9.85;7.97;;;19.30;97.30;;;;;;5056178;28;20507;-61
2023/05/07 07:55:22;;;;;;;9.45;8.75;;;19.30;96.10;;;;;;5056960;28;20017;-60
2023/05/07 07:57:48;;;;;;;9.57;8.88;;;19.40;95.10;;;;;;5053552;28;20103;-60
2023/05/07 08:00:15;;;;;;;8.75;8.05;;;19.40;96.70;;;;;;5055582;28;20032;-60
2023/05/07 08:02:40;;;;;;;8.73;8.10;;;19.40;94.90;;;;;;5054086;28;20029;-60
2023/05/07 08:05:07;;;;;;;12.57;8.75;;;19.60;94.10;;;;;;5057984;28;20040;-60
2023/05/07 08:07:32;;;;;;;8.55;7.88;;;19.60;92.70;;;;;;5059769;28;20029;-60
2023/05/07 08:09:58;;;;;;;8.80;8.20;;;19.40;94.60;;;;;;5055659;28;20153;-59
2023/05/07 08:12:24;;;;;;;8.98;8.18;;;19.30;93.90;;;;;;5057879;28;20556;-60
2023/05/07 08:14:50;;;;;;;10.70;8.38;;;19.30;93.30;;;;;;5055810;28;20029;-59
2023/05/07 08:17:16;;;;;;;8.02;7.32;;;19.30;93.10;;;;;;5058030;28;20048;-60
2023/05/07 08:19:43;;;;;;;7.35;6.75;;;19.50;94.20;;;;;;5062011;28;20047;-59
2023/05/07 08:22:10;;;;;;;7.43;6.82;;;19.80;92.10;;;;;;5059251;28;20128;-60
2023/05/07 08:24:36;;;;;;;8.85;8.05;;;19.80;92.90;;;;;;5055944;28;20409;-60
2023/05/07 08:27:01;;;;;;;7.78;7.07;;;20.00;93.90;;;;;;5065313;28;20048;-60
2023/05/07 08:29:27;;;;;;;7.40;6.80;;;20.20;93.20;;;;;;5060182;28;20044;-60
2023/05/07 08:31:53;;;;;;;7.22;6.63;;;20.30;90.90;;;;;;5061424;28;20771;-59
2023/05/07 08:34:18;;;;;;;6.80;6.18;;;20.40;92.90;;;;;;5061154;28;20029;-60
2023/05/07 08:36:46;;;;;;;7.90;7.20;;;20.50;93.00;;;;;;5057848;28;20025;-61
2023/05/07 08:39:12;;;;;;;7.05;6.45;;;20.50;91.80;;;;;;5060853;28;20048;-60
2023/05/07 08:41:38;;;;;;;7.43;6.90;;;20.50;91.80;;;;;;5060404;28;20087;-60
2023/05/07 08:44:11;;;;;;;6.72;6.07;;;20.70;92.70;;;;;;5061280;28;20020;-60
2023/05/07 08:46:37;;;;;;;7.85;7.10;;;20.80;87.10;;;;;;5063509;28;20447;-60
2023/05/07 08:49:03;;;;;;;7.07;6.25;;;20.50;90.40;;;;;;5060521;28;20100;-60
2023/05/07 08:51:28;;;;;;;7.18;6.60;;;20.50;90.20;;;;;;5058359;28;20037;-60
2023/05/07 08:53:54;;;;;;;6.55;5.97;;;20.60;90.20;;;;;;5060828;28;20028;-60
2023/05/07 08:56:20;;;;;;;6.93;6.07;;;20.70;90.10;;;;;;5057399;28;20033;-59
2023/05/07 08:58:48;;;;;;;6.32;5.68;;;20.80;91.00;;;;;;5061381;28;20021;-60
2023/05/07 09:01:15;;;;;;;6.47;5.97;;;20.90;89.10;;;;;;5057253;28;20031;-60
2023/05/07 09:03:43;;;;;;;6.40;5.38;;;20.90;86.30;;;;;;5059120;28;20139;-61
2023/05/07 09:06:10;;;;;;;6.07;5.57;;;20.90;90.20;;;;;;5059000;28;20041;-60
2023/05/07 09:08:36;;;;;;;6.95;6.35;;;21.10;90.70;;;;;;5059523;28;20170;-60
2023/05/07 09:11:02;;;;;;;5.70;5.20;;;21.10;84.90;;;;;;5060453;28;20021;-59
2023/05/07 09:13:28;;;;;;;6.55;6.05;;;21.20;88.80;;;;;;5057711;28;20033;-60
2023/05/07 09:15:54;;;;;;;6.90;6.30;;;21.30;86.90;;;;;;5060424;28;20560;-57
2023/05/07 09:18:20;;;;;;;6.60;6.10;;;21.50;86.00;;;;;;5062702;28;20131;-57
2023/05/07 09:20:45;;;;;;;6.10;5.60;;;21.60;86.60;;;;;;5056881;28;20205;-57
2023/05/07 09:23:11;;;;;;;7.45;6.88;;;21.80;86.90;;;;;;5056206;28;20068;-59
2023/05/07 09:25:37;;;;;;;6.18;5.70;;;22.00;85.70;;;;;;5059483;28;20060;-58
2023/05/07 09:28:04;;;;;;;7.65;6.18;;;22.20;86.10;;;;;;5058265;28;20507;-59
2023/05/07 09:30:33;;;;;;;5.55;5.05;;;22.50;85.00;;;;;;5059317;28;20032;-59
2023/05/07 09:33:00;;;;;;;5.35;4.95;;;22.80;80.10;;;;;;5059512;28;20568;-58
2023/05/07 09:35:30;;;;;;;5.57;5.18;;;22.80;78.10;;;;;;5054589;28;20043;-59
2023/05/07 09:37:57;;;;;;;5.38;4.97;;;22.70;82.00;;;;;;5058298;28;20431;-58
2023/05/07 09:40:29;;;;;;;5.20;4.70;;;22.50;80.20;;;;;;5062738;28;20086;-59
2023/05/07 09:42:55;;;;;;;6.10;5.00;;;22.50;80.60;;;;;;5056900;28;20021;-59
2023/05/07 09:45:28;;;;;;;5.18;4.68;;;22.60;79.80;;;;;;5059690;28;20057;-58
2023/05/07 09:47:58;;;;;;;4.70;4.30;;;22.80;78.80;;;;;;5057466;28;20033;-59
2023/05/07 09:50:32;;;;;;;6.13;5.65;;;23.00;78.90;;;;;;5057039;28;20026;-58
2023/05/07 09:52:58;;;;;;;5.10;4.70;;;23.30;74.00;;;;;;5060221;28;20082;-58
2023/05/07 09:55:24;;;;;;;5.50;5.10;;;23.40;74.30;;;;;;5057783;28;20028;-59
2023/05/07 09:57:52;;;;;;;5.00;4.60;;;23.50;76.30;;;;;;5056160;28;20381;-59
2023/05/07 10:00:19;;;;;;;4.80;4.30;;;23.60;74.90;;;;;;5057088;28;20024;-60
2023/05/07 10:02:51;;;;;;;5.07;4.68;;;23.60;76.70;;;;;;5058429;28;20078;-59
2023/05/07 10:05:19;;;;;;;6.95;4.97;;;23.90;71.80;;;;;;5055947;28;20039;-59
2023/05/07 10:07:45;;;;;;;5.05;4.53;;;24.10;68.70;;;;;;5058037;28;20025;-58
2023/05/07 10:10:12;;;;;;;5.38;4.93;;;24.10;71.70;;;;;;5055126;28;20112;-59
2023/05/07 10:12:40;;;;;;;4.43;4.13;;;24.40;66.50;;;;;;5055557;28;20556;-58
2023/05/07 10:15:07;;;;;;;6.68;4.70;;;24.60;67.90;;;;;;5058166;28;20107;-59
2023/05/07 10:17:38;;;;;;;4.97;4.57;;;24.30;68.80;;;;;;5060508;28;20036;-58
2023/05/07 10:20:08;;;;;;;4.55;4.18;;;24.10;70.00;;;;;;5059177;28;20047;-59
2023/05/07 10:22:45;;;;;;;4.40;4.10;;;24.10;72.50;;;;;;5060300;28;20115;-59
2023/05/07 10:25:22;;;;;;;4.75;4.35;;;24.20;71.70;;;;;;5055492;28;20033;-58
2023/05/07 10:27:50;;;;;;;4.78;4.38;;;24.40;71.30;;;;;;5056591;28;20035;-59
2023/05/07 10:30:40;;;;;;;4.55;4.25;;;24.50;68.30;;;;;;5056793;28;20521;-59
2023/05/07 10:33:08;;;;;;;4.78;4.20;;;24.70;70.90;;;;;;5057236;28;20626;-58
2023/05/07 10:35:43;;;;;;;4.32;4.00;;;24.90;67.80;;;;;;5056573;28;20039;-58
2023/05/07 10:38:09;;;;;;;4.80;4.40;;;24.90;71.90;;;;;;5056971;28;20021;-58
2023/05/07 10:40:35;;;;;;;4.25;3.85;;;24.70;70.00;;;;;;5056888;28;20107;-59
2023/05/07 10:43:04;;;;;;;5.22;4.72;;;24.30;72.60;;;;;;5057310;28;20466;-58
2023/05/07 10:45:31;;;;;;;4.88;4.45;;;23.80;71.10;;;;;;5052062;28;20055;-58
2023/05/07 10:48:13;;;;;;;6.63;4.80;;;23.40;73.20;;;;;;5057629;28;20044;-56
2023/05/07 10:50:40;;;;;;;4.72;4.35;;;23.30;72.60;;;;;;5056835;28;20029;-60
2023/05/07 10:53:18;;;;;;;5.25;4.20;;;23.50;73.20;;;;;;5056192;28;20134;-59
2023/05/07 10:55:44;;;;;;;6.93;3.95;;;24.00;74.60;;;;;;5058714;28;20504;-58
2023/05/07 10:58:29;;;;;;;3.85;3.42;;;24.10;71.60;;;;;;5057009;28;20064;-59
2023/05/07 11:00:59;;;;;;;5.45;3.42;;;24.50;70.60;;;;;;5056687;28;20036;-59
2023/05/07 11:03:26;;;;;;;4.22;3.58;;;24.80;65.50;;;;;;5056428;28;20036;-59
2023/05/07 11:06:11;;;;;;;4.93;3.42;;;24.90;69.90;;;;;;5057038;28;20036;-59
2023/05/07 11:08:52;;;;;;;4.05;3.65;;;24.70;67.20;;;;;;5061677;28;20083;-60
2023/05/07 11:11:19;;;;;;;7.75;3.50;;;24.70;71.00;;;;;;5056854;28;20083;-59
2023/05/07 11:13:50;;;;;;;3.95;3.20;;;25.00;70.50;;;;;;5059204;28;20017;-60
2023/05/07 11:16:24;;;;;;;3.45;3.15;;;25.30;68.40;;;;;;5059744;28;20044;-59
2023/05/07 11:18:52;;;;;;;3.58;2.50;;;25.50;65.70;;;;;;5061857;28;20123;-59
2023/05/07 11:21:40;;;;;;;3.53;2.75;;;25.40;64.10;;;;;;5059005;28;20021;-59
2023/05/07 11:24:07;;;;;;;3.63;3.33;;;25.40;66.60;;;;;;5059264;28;20029;-60
2023/05/07 11:26:43;;;;;;;3.83;3.00;;;25.20;67.20;;;;;;5060023;28;20026;-59
2023/05/07 11:29:17;;;;;;;3.60;3.25;;;24.90;63.90;;;;;;5057955;28;20029;-60
2023/05/07 11:31:42;;;;;;;3.63;3.33;;;24.90;67.60;;;;;;5056268;28;20508;-59
2023/05/07 11:34:09;;;;;;;5.90;3.30;;;24.90;66.10;;;;;;5055781;28;20033;-59
2023/05/07 11:36:40;;;;;;;3.60;3.30;;;25.00;62.40;;;;;;5057325;28;20105;-59
2023/05/07 11:39:22;;;;;;;2.97;2.67;;;24.50;61.90;;;;;;5058460;28;20045;-59
2023/05/07 11:41:48;;;;;;;3.33;3.05;;;24.10;66.30;;;;;;5061717;28;20040;-60
2023/05/07 11:44:13;;;;;;;4.57;4.18;;;23.70;70.50;;;;;;5060516;28;20174;-60
2023/05/07 11:46:43;;;;;;;4.47;3.70;;;23.60;67.20;;;;;;5062548;28;20052;-59
2023/05/07 11:49:09;;;;;;;4.78;4.00;;;23.50;68.00;;;;;;5058687;28;20024;-59
2023/05/07 11:51:34;;;;;;;3.35;3.13;;;23.50;71.90;;;;;;5061505;28;20035;-58
2023/05/07 11:54:03;;;;;;;4.70;3.95;;;23.50;70.00;;;;;;5061477;28;20029;-59
2023/05/07 11:56:28;;;;;;;5.07;4.18;;;23.30;73.70;;;;;;5060159;28;20097;-60
2023/05/07 11:58:54;;;;;;;4.97;4.57;;;23.20;74.40;;;;;;5062254;28;20476;-59
2023/05/07 12:01:20;;;;;;;4.90;4.38;;;23.20;74.00;;;;;;5057994;28;20067;-59
2023/05/07 12:03:46;;;;;;;4.88;4.38;;;23.40;75.70;;;;;;5059972;28;20498;-60
2023/05/07 12:06:14;;;;;;;5.43;5.03;;;23.80;73.30;;;;;;5060393;28;20140;-59
2023/05/07 12:08:41;;;;;;;6.18;5.20;;;24.10;67.20;;;;;;5059236;28;20033;-58
2023/05/07 12:11:12;;;;;;;4.75;4.13;;;24.00;69.50;;;;;;5058662;28;20021;-59
2023/05/07 12:13:38;;;;;;;4.30;4.00;;;24.00;71.20;;;;;;5059142;28;20039;-59
2023/05/07 12:16:05;;;;;;;4.57;4.07;;;23.90;71.20;;;;;;5057909;28;20032;-60
2023/05/07 12:18:30;;;;;;;4.90;4.43;;;23.90;73.30;;;;;;5067792;28;20112;-59
2023/05/07 12:20:56;;;;;;;4.40;4.00;;;24.10;75.00;;;;;;5058348;28;20132;-60
2023/05/07 12:23:22;;;;;;;4.53;3.55;;;24.50;70.70;;;;;;5057885;28;20051;-59
2023/05/07 12:25:48;;;;;;;4.15;3.38;;;25.10;69.50;;;;;;5061575;28;20069;-59
2023/05/07 12:28:18;;;;;;;4.93;3.50;;;25.30;69.60;;;;;;5059344;28;20120;-57
2023/05/07 12:30:48;;;;;;;3.53;3.22;;;25.70;67.20;;;;;;5058603;28;20429;-59
2023/05/07 12:33:18;;;;;;;4.15;3.70;;;25.60;64.60;;;;;;5059068;28;20033;-60